sensor_id;sensor_type;location;lat;lon;timestamp;P1;durP1;ratioP1;P2;durP2;ratioP2
16314;SDS011;8266;52.150;4.768;2023-03-01T00:01:56;12.25;;;11.00;;
16314;SDS011;8266;52.150;4.768;2023-03-01T00:04:23;13.35;;;11.95;;
16314;SDS011;8266;52.150;4.768;2023-03-01T00:06:50;14.20;;;12.80;;
16314;SDS011;8266;52.150;4.768;2023-03-01T00:09:17;14.27;;;12.80;;
16314;SDS011;8266;52.150;4.768;2023-03-01T00:11:46;17.40;;;15.65;;
16314;SDS011;8266;52.150;4.768;2023-03-01T00:14:13;17.02;;;15.35;;
16314;SDS011;8266;52.150;4.768;2023-03-01T00:16:41;20.17;;;16.95;;
16314;SDS011;8266;52.150;4.768;2023-03-01T00:19:11;18.55;;;16.83;;
16314;SDS011;8266;52.150;4.768;2023-03-01T00:21:39;19.05;;;17.02;;
16314;SDS011;8266;52.150;4.768;2023-03-01T00:24:07;18.65;;;16.88;;
16314;SDS011;8266;52.150;4.768;2023-03-01T00:26:34;19.23;;;17.33;;
16314;SDS011;8266;52.150;4.768;2023-03-01T00:29:02;20.15;;;18.02;;
16314;SDS011;8266;52.150;4.768;2023-03-01T00:31:30;20.20;;;18.17;;
16314;SDS011;8266;52.150;4.768;2023-03-01T00:33:59;19.65;;;17.67;;
16314;SDS011;8266;52.150;4.768;2023-03-01T00:36:28;20.80;;;18.67;;
16314;SDS011;8266;52.150;4.768;2023-03-01T00:38:57;20.15;;;18.15;;
16314;SDS011;8266;52.150;4.768;2023-03-01T00:41:24;21.67;;;19.55;;
16314;SDS011;8266;52.150;4.768;2023-03-01T00:43:53;24.13;;;21.52;;
16314;SDS011;8266;52.150;4.768;2023-03-01T00:46:22;25.20;;;22.50;;
16314;SDS011;8266;52.150;4.768;2023-03-01T00:48:50;24.17;;;21.67;;
16314;SDS011;8266;52.150;4.768;2023-03-01T00:51:18;23.67;;;21.35;;
16314;SDS011;8266;52.150;4.768;2023-03-01T00:53:46;24.33;;;22.00;;
16314;SDS011;8266;52.150;4.768;2023-03-01T00:56:16;22.38;;;20.25;;
16314;SDS011;8266;52.150;4.768;2023-03-01T00:58:43;22.50;;;20.33;;
16314;SDS011;8266;52.150;4.768;2023-03-01T01:01:11;23.23;;;20.92;;
16314;SDS011;8266;52.150;4.768;2023-03-01T01:03:45;23.10;;;20.80;;
16314;SDS011;8266;52.150;4.768;2023-03-01T01:06:14;23.92;;;21.40;;
16314;SDS011;8266;52.150;4.768;2023-03-01T01:08:41;24.45;;;21.85;;
16314;SDS011;8266;52.150;4.768;2023-03-01T01:11:09;22.80;;;20.63;;
16314;SDS011;8266;52.150;4.768;2023-03-01T01:13:36;22.17;;;19.88;;
16314;SDS011;8266;52.150;4.768;2023-03-01T01:16:04;22.38;;;20.08;;
16314;SDS011;8266;52.150;4.768;2023-03-01T01:18:31;21.30;;;19.05;;
16314;SDS011;8266;52.150;4.768;2023-03-01T01:21:04;21.67;;;19.45;;
16314;SDS011;8266;52.150;4.768;2023-03-01T01:23:32;20.20;;;18.13;;
16314;SDS011;8266;52.150;4.768;2023-03-01T01:26:03;21.08;;;17.33;;
16314;SDS011;8266;52.150;4.768;2023-03-01T01:28:31;21.23;;;18.95;;
16314;SDS011;8266;52.150;4.768;2023-03-01T01:30:58;19.75;;;17.65;;
16314;SDS011;8266;52.150;4.768;2023-03-01T01:33:25;21.13;;;18.88;;
16314;SDS011;8266;52.150;4.768;2023-03-01T01:35:52;20.80;;;18.70;;
16314;SDS011;8266;52.150;4.768;2023-03-01T01:38:21;20.48;;;18.48;;
16314;SDS011;8266;52.150;4.768;2023-03-01T01:40:48;19.23;;;17.13;;
16314;SDS011;8266;52.150;4.768;2023-03-01T01:43:18;21.33;;;17.63;;
16314;SDS011;8266;52.150;4.768;2023-03-01T01:45:47;18.63;;;16.83;;
16314;SDS011;8266;52.150;4.768;2023-03-01T01:48:16;21.45;;;18.63;;
16314;SDS011;8266;52.150;4.768;2023-03-01T01:50:46;19.42;;;17.52;;
16314;SDS011;8266;52.150;4.768;2023-03-01T01:53:21;20.30;;;17.88;;
16314;SDS011;8266;52.150;4.768;2023-03-01T01:55:51;20.63;;;18.65;;
16314;SDS011;8266;52.150;4.768;2023-03-01T01:58:22;19.38;;;17.38;;
16314;SDS011;8266;52.150;4.768;2023-03-01T02:00:52;19.40;;;17.50;;
16314;SDS011;8266;52.150;4.768;2023-03-01T02:03:20;20.85;;;18.33;;
16314;SDS011;8266;52.150;4.768;2023-03-01T02:05:55;20.65;;;18.55;;
16314;SDS011;8266;52.150;4.768;2023-03-01T02:08:30;20.27;;;17.73;;
16314;SDS011;8266;52.150;4.768;2023-03-01T02:11:00;18.83;;;16.90;;
16314;SDS011;8266;52.150;4.768;2023-03-01T02:13:29;19.40;;;17.42;;
16314;SDS011;8266;52.150;4.768;2023-03-01T02:15:57;19.80;;;17.13;;
16314;SDS011;8266;52.150;4.768;2023-03-01T02:18:24;18.35;;;16.45;;
16314;SDS011;8266;52.150;4.768;2023-03-01T02:20:55;18.90;;;17.00;;
16314;SDS011;8266;52.150;4.768;2023-03-01T02:23:36;17.70;;;15.85;;
16314;SDS011;8266;52.150;4.768;2023-03-01T02:26:05;18.27;;;16.40;;
16314;SDS011;8266;52.150;4.768;2023-03-01T02:28:40;17.40;;;15.63;;
16314;SDS011;8266;52.150;4.768;2023-03-01T02:31:10;18.77;;;16.77;;
16314;SDS011;8266;52.150;4.768;2023-03-01T02:33:59;19.30;;;17.30;;
16314;SDS011;8266;52.150;4.768;2023-03-01T02:36:30;19.90;;;17.80;;
16314;SDS011;8266;52.150;4.768;2023-03-01T02:39:01;20.40;;;18.30;;
16314;SDS011;8266;52.150;4.768;2023-03-01T02:41:32;20.30;;;18.17;;
16314;SDS011;8266;52.150;4.768;2023-03-01T02:44:03;21.75;;;19.17;;
16314;SDS011;8266;52.150;4.768;2023-03-01T02:46:30;21.00;;;18.77;;
16314;SDS011;8266;52.150;4.768;2023-03-01T02:48:58;20.17;;;17.98;;
16314;SDS011;8266;52.150;4.768;2023-03-01T02:51:41;19.63;;;17.58;;
16314;SDS011;8266;52.150;4.768;2023-03-01T02:54:15;21.25;;;19.05;;
16314;SDS011;8266;52.150;4.768;2023-03-01T02:56:48;20.25;;;18.08;;
16314;SDS011;8266;52.150;4.768;2023-03-01T02:59:18;20.70;;;18.50;;
16314;SDS011;8266;52.150;4.768;2023-03-01T03:01:47;20.75;;;18.65;;
16314;SDS011;8266;52.150;4.768;2023-03-01T03:04:14;20.70;;;18.40;;
16314;SDS011;8266;52.150;4.768;2023-03-01T03:06:43;20.98;;;18.77;;
16314;SDS011;8266;52.150;4.768;2023-03-01T03:09:10;20.60;;;18.35;;
16314;SDS011;8266;52.150;4.768;2023-03-01T03:11:38;20.98;;;18.77;;
16314;SDS011;8266;52.150;4.768;2023-03-01T03:14:06;23.83;;;18.83;;
16314;SDS011;8266;52.150;4.768;2023-03-01T03:16:40;32.70;;;18.75;;
16314;SDS011;8266;52.150;4.768;2023-03-01T03:19:08;48.25;;;20.02;;
16314;SDS011;8266;52.150;4.768;2023-03-01T03:21:36;48.88;;;20.60;;
16314;SDS011;8266;52.150;4.768;2023-03-01T03:24:03;39.22;;;18.90;;
16314;SDS011;8266;52.150;4.768;2023-03-01T03:26:31;31.10;;;17.58;;
16314;SDS011;8266;52.150;4.768;2023-03-01T03:28:58;39.83;;;18.58;;
16314;SDS011;8266;52.150;4.768;2023-03-01T03:31:26;44.63;;;16.95;;
16314;SDS011;8266;52.150;4.768;2023-03-01T03:33:55;50.70;;;19.13;;
16314;SDS011;8266;52.150;4.768;2023-03-01T03:36:24;55.13;;;18.10;;
16314;SDS011;8266;52.150;4.768;2023-03-01T03:38:51;76.68;;;18.33;;
16314;SDS011;8266;52.150;4.768;2023-03-01T03:41:18;62.28;;;17.30;;
16314;SDS011;8266;52.150;4.768;2023-03-01T03:43:44;72.82;;;17.30;;
16314;SDS011;8266;52.150;4.768;2023-03-01T03:46:12;68.55;;;18.63;;
16314;SDS011;8266;52.150;4.768;2023-03-01T03:48:40;81.18;;;18.30;;
16314;SDS011;8266;52.150;4.768;2023-03-01T03:51:11;73.97;;;18.35;;
16314;SDS011;8266;52.150;4.768;2023-03-01T03:53:38;65.25;;;18.42;;
16314;SDS011;8266;52.150;4.768;2023-03-01T03:56:06;50.08;;;14.45;;
16314;SDS011;8266;52.150;4.768;2023-03-01T03:58:33;86.25;;;17.10;;
16314;SDS011;8266;52.150;4.768;2023-03-01T04:01:00;74.85;;;15.52;;
16314;SDS011;8266;52.150;4.768;2023-03-01T04:03:27;55.95;;;14.60;;
16314;SDS011;8266;52.150;4.768;2023-03-01T04:05:57;71.57;;;14.30;;
16314;SDS011;8266;52.150;4.768;2023-03-01T04:08:26;81.20;;;14.30;;
16314;SDS011;8266;52.150;4.768;2023-03-01T04:10:56;94.88;;;13.50;;
16314;SDS011;8266;52.150;4.768;2023-03-01T04:13:25;67.20;;;11.75;;
16314;SDS011;8266;52.150;4.768;2023-03-01T04:15:53;55.17;;;14.40;;
16314;SDS011;8266;52.150;4.768;2023-03-01T04:18:21;73.85;;;17.33;;
16314;SDS011;8266;52.150;4.768;2023-03-01T04:20:50;84.95;;;16.98;;
16314;SDS011;8266;52.150;4.768;2023-03-01T04:23:20;84.88;;;17.35;;
16314;SDS011;8266;52.150;4.768;2023-03-01T04:25:49;95.65;;;16.27;;
16314;SDS011;8266;52.150;4.768;2023-03-01T04:28:19;44.35;;;15.30;;
16314;SDS011;8266;52.150;4.768;2023-03-01T04:30:47;35.03;;;13.80;;
16314;SDS011;8266;52.150;4.768;2023-03-01T04:33:14;35.50;;;13.90;;
16314;SDS011;8266;52.150;4.768;2023-03-01T04:35:41;18.60;;;12.80;;
16314;SDS011;8266;52.150;4.768;2023-03-01T04:38:08;39.65;;;14.10;;
16314;SDS011;8266;52.150;4.768;2023-03-01T04:40:35;54.58;;;15.02;;
16314;SDS011;8266;52.150;4.768;2023-03-01T04:43:04;43.13;;;14.68;;
16314;SDS011;8266;52.150;4.768;2023-03-01T04:45:32;56.72;;;14.60;;
16314;SDS011;8266;52.150;4.768;2023-03-01T04:48:00;48.78;;;14.93;;
16314;SDS011;8266;52.150;4.768;2023-03-01T04:50:28;40.53;;;14.98;;
16314;SDS011;8266;52.150;4.768;2023-03-01T04:52:55;57.08;;;14.80;;
16314;SDS011;8266;52.150;4.768;2023-03-01T04:55:23;14.65;;;12.80;;
16314;SDS011;8266;52.150;4.768;2023-03-01T04:57:51;35.63;;;13.98;;
16314;SDS011;8266;52.150;4.768;2023-03-01T05:00:22;23.00;;;13.77;;
16314;SDS011;8266;52.150;4.768;2023-03-01T05:02:50;46.78;;;13.70;;
16314;SDS011;8266;52.150;4.768;2023-03-01T05:05:23;92.47;;;15.15;;
16314;SDS011;8266;52.150;4.768;2023-03-01T05:07:53;49.35;;;14.13;;
16314;SDS011;8266;52.150;4.768;2023-03-01T05:10:20;25.30;;;11.85;;
16314;SDS011;8266;52.150;4.768;2023-03-01T05:12:47;18.38;;;11.65;;
16314;SDS011;8266;52.150;4.768;2023-03-01T05:15:15;20.08;;;13.20;;
16314;SDS011;8266;52.150;4.768;2023-03-01T05:17:43;24.73;;;13.50;;
16314;SDS011;8266;52.150;4.768;2023-03-01T05:20:11;25.25;;;15.30;;
16314;SDS011;8266;52.150;4.768;2023-03-01T05:22:38;14.02;;;12.68;;
16314;SDS011;8266;52.150;4.768;2023-03-01T05:25:05;19.05;;;11.52;;
16314;SDS011;8266;52.150;4.768;2023-03-01T05:27:33;13.57;;;12.02;;
16314;SDS011;8266;52.150;4.768;2023-03-01T05:30:01;30.33;;;11.38;;
16314;SDS011;8266;52.150;4.768;2023-03-01T05:32:39;53.60;;;12.52;;
16314;SDS011;8266;52.150;4.768;2023-03-01T05:35:09;23.90;;;12.23;;
16314;SDS011;8266;52.150;4.768;2023-03-01T05:37:40;14.43;;;11.63;;
16314;SDS011;8266;52.150;4.768;2023-03-01T05:40:08;12.30;;;11.15;;
16314;SDS011;8266;52.150;4.768;2023-03-01T05:42:43;12.20;;;11.10;;
16314;SDS011;8266;52.150;4.768;2023-03-01T05:45:11;12.40;;;11.35;;
16314;SDS011;8266;52.150;4.768;2023-03-01T05:47:39;11.40;;;10.50;;
16314;SDS011;8266;52.150;4.768;2023-03-01T05:50:11;12.55;;;11.40;;
16314;SDS011;8266;52.150;4.768;2023-03-01T05:52:44;10.73;;;9.82;;
16314;SDS011;8266;52.150;4.768;2023-03-01T05:55:11;11.95;;;10.93;;
16314;SDS011;8266;52.150;4.768;2023-03-01T05:57:39;11.85;;;10.75;;
16314;SDS011;8266;52.150;4.768;2023-03-01T06:00:06;10.98;;;9.88;;
16314;SDS011;8266;52.150;4.768;2023-03-01T06:02:34;10.98;;;10.07;;
16314;SDS011;8266;52.150;4.768;2023-03-01T06:05:01;11.73;;;10.52;;
16314;SDS011;8266;52.150;4.768;2023-03-01T06:07:30;11.15;;;10.23;;
16314;SDS011;8266;52.150;4.768;2023-03-01T06:09:57;10.73;;;9.73;;
16314;SDS011;8266;52.150;4.768;2023-03-01T06:12:25;11.00;;;10.00;;
16314;SDS011;8266;52.150;4.768;2023-03-01T06:14:52;12.02;;;11.02;;
16314;SDS011;8266;52.150;4.768;2023-03-01T06:17:19;12.07;;;10.95;;
16314;SDS011;8266;52.150;4.768;2023-03-01T06:19:46;11.60;;;10.60;;
16314;SDS011;8266;52.150;4.768;2023-03-01T06:22:13;12.30;;;11.20;;
16314;SDS011;8266;52.150;4.768;2023-03-01T06:24:41;11.60;;;10.57;;
16314;SDS011;8266;52.150;4.768;2023-03-01T06:27:08;11.90;;;10.82;;
16314;SDS011;8266;52.150;4.768;2023-03-01T06:29:35;12.43;;;11.23;;
16314;SDS011;8266;52.150;4.768;2023-03-01T06:32:02;12.52;;;11.32;;
16314;SDS011;8266;52.150;4.768;2023-03-01T06:34:29;12.88;;;11.68;;
16314;SDS011;8266;52.150;4.768;2023-03-01T06:36:57;12.50;;;11.30;;
16314;SDS011;8266;52.150;4.768;2023-03-01T06:39:24;13.63;;;12.38;;
16314;SDS011;8266;52.150;4.768;2023-03-01T06:41:52;13.32;;;12.00;;
16314;SDS011;8266;52.150;4.768;2023-03-01T06:44:19;14.25;;;12.75;;
16314;SDS011;8266;52.150;4.768;2023-03-01T06:46:46;14.57;;;13.05;;
16314;SDS011;8266;52.150;4.768;2023-03-01T06:49:13;16.05;;;14.55;;
16314;SDS011;8266;52.150;4.768;2023-03-01T06:51:41;17.52;;;14.88;;
16314;SDS011;8266;52.150;4.768;2023-03-01T06:54:08;36.22;;;17.58;;
16314;SDS011;8266;52.150;4.768;2023-03-01T06:56:35;43.42;;;17.20;;
16314;SDS011;8266;52.150;4.768;2023-03-01T06:59:04;60.00;;;19.13;;
16314;SDS011;8266;52.150;4.768;2023-03-01T07:01:31;46.60;;;17.23;;
16314;SDS011;8266;52.150;4.768;2023-03-01T07:03:58;21.00;;;17.02;;
16314;SDS011;8266;52.150;4.768;2023-03-01T07:06:25;16.85;;;15.05;;
16314;SDS011;8266;52.150;4.768;2023-03-01T07:08:52;16.35;;;14.68;;
16314;SDS011;8266;52.150;4.768;2023-03-01T07:11:19;16.70;;;14.95;;
16314;SDS011;8266;52.150;4.768;2023-03-01T07:13:46;15.57;;;13.95;;
16314;SDS011;8266;52.150;4.768;2023-03-01T07:16:14;16.27;;;14.27;;
16314;SDS011;8266;52.150;4.768;2023-03-01T07:18:41;13.50;;;12.13;;
16314;SDS011;8266;52.150;4.768;2023-03-01T07:21:09;14.20;;;12.52;;
16314;SDS011;8266;52.150;4.768;2023-03-01T07:23:38;15.90;;;14.20;;
16314;SDS011;8266;52.150;4.768;2023-03-01T07:26:05;16.83;;;15.02;;
16314;SDS011;8266;52.150;4.768;2023-03-01T07:28:33;17.45;;;14.73;;
16314;SDS011;8266;52.150;4.768;2023-03-01T07:31:03;17.38;;;15.43;;
16314;SDS011;8266;52.150;4.768;2023-03-01T07:33:32;16.38;;;14.68;;
16314;SDS011;8266;52.150;4.768;2023-03-01T07:36:00;17.00;;;15.30;;
16314;SDS011;8266;52.150;4.768;2023-03-01T07:38:31;15.82;;;14.23;;
16314;SDS011;8266;52.150;4.768;2023-03-01T07:40:58;16.30;;;14.60;;
16314;SDS011;8266;52.150;4.768;2023-03-01T07:43:26;16.70;;;14.98;;
16314;SDS011;8266;52.150;4.768;2023-03-01T07:45:53;17.23;;;15.52;;
16314;SDS011;8266;52.150;4.768;2023-03-01T07:48:20;17.38;;;15.63;;
16314;SDS011;8266;52.150;4.768;2023-03-01T07:50:48;17.52;;;15.73;;
16314;SDS011;8266;52.150;4.768;2023-03-01T07:53:15;16.58;;;14.98;;
16314;SDS011;8266;52.150;4.768;2023-03-01T07:55:42;15.57;;;13.95;;
16314;SDS011;8266;52.150;4.768;2023-03-01T07:58:09;16.10;;;14.50;;
16314;SDS011;8266;52.150;4.768;2023-03-01T08:00:36;16.13;;;14.57;;
16314;SDS011;8266;52.150;4.768;2023-03-01T08:03:03;15.80;;;14.15;;
16314;SDS011;8266;52.150;4.768;2023-03-01T08:05:30;16.77;;;14.40;;
16314;SDS011;8266;52.150;4.768;2023-03-01T08:07:59;16.60;;;15.00;;
16314;SDS011;8266;52.150;4.768;2023-03-01T08:10:26;16.58;;;14.88;;
16314;SDS011;8266;52.150;4.768;2023-03-01T08:12:53;17.35;;;15.18;;
16314;SDS011;8266;52.150;4.768;2023-03-01T08:15:20;17.25;;;15.25;;
16314;SDS011;8266;52.150;4.768;2023-03-01T08:17:48;16.40;;;14.68;;
16314;SDS011;8266;52.150;4.768;2023-03-01T08:20:19;16.27;;;14.68;;
16314;SDS011;8266;52.150;4.768;2023-03-01T08:22:46;16.83;;;15.13;;
16314;SDS011;8266;52.150;4.768;2023-03-01T08:25:15;17.20;;;15.48;;
16314;SDS011;8266;52.150;4.768;2023-03-01T08:27:42;16.42;;;14.82;;
16314;SDS011;8266;52.150;4.768;2023-03-01T08:30:09;18.08;;;16.17;;
16314;SDS011;8266;52.150;4.768;2023-03-01T08:32:37;22.88;;;20.42;;
16314;SDS011;8266;52.150;4.768;2023-03-01T08:35:05;20.05;;;17.45;;
16314;SDS011;8266;52.150;4.768;2023-03-01T08:37:32;19.80;;;17.73;;
16314;SDS011;8266;52.150;4.768;2023-03-01T08:39:59;18.05;;;16.35;;
16314;SDS011;8266;52.150;4.768;2023-03-01T08:42:28;18.67;;;16.77;;
16314;SDS011;8266;52.150;4.768;2023-03-01T08:44:55;18.45;;;16.70;;
16314;SDS011;8266;52.150;4.768;2023-03-01T08:47:22;17.50;;;15.77;;
16314;SDS011;8266;52.150;4.768;2023-03-01T08:49:49;20.77;;;18.55;;
16314;SDS011;8266;52.150;4.768;2023-03-01T08:52:16;18.17;;;16.33;;
16314;SDS011;8266;52.150;4.768;2023-03-01T08:54:44;18.23;;;15.35;;
16314;SDS011;8266;52.150;4.768;2023-03-01T08:57:11;17.15;;;15.52;;
16314;SDS011;8266;52.150;4.768;2023-03-01T08:59:39;18.13;;;16.23;;
16314;SDS011;8266;52.150;4.768;2023-03-01T09:02:10;16.38;;;14.77;;
16314;SDS011;8266;52.150;4.768;2023-03-01T09:04:38;17.23;;;15.10;;
16314;SDS011;8266;52.150;4.768;2023-03-01T09:07:05;15.32;;;13.77;;
16314;SDS011;8266;52.150;4.768;2023-03-01T09:09:33;15.32;;;13.98;;
16314;SDS011;8266;52.150;4.768;2023-03-01T09:12:00;16.48;;;15.02;;
16314;SDS011;8266;52.150;4.768;2023-03-01T09:14:28;16.00;;;14.50;;
16314;SDS011;8266;52.150;4.768;2023-03-01T09:16:57;16.63;;;14.40;;
16314;SDS011;8266;52.150;4.768;2023-03-01T09:19:27;15.63;;;14.13;;
16314;SDS011;8266;52.150;4.768;2023-03-01T09:21:54;14.55;;;13.07;;
16314;SDS011;8266;52.150;4.768;2023-03-01T09:24:23;15.18;;;13.77;;
16314;SDS011;8266;52.150;4.768;2023-03-01T09:26:52;15.25;;;13.75;;
16314;SDS011;8266;52.150;4.768;2023-03-01T09:29:20;15.05;;;13.55;;
16314;SDS011;8266;52.150;4.768;2023-03-01T09:31:48;17.98;;;14.50;;
16314;SDS011;8266;52.150;4.768;2023-03-01T09:34:16;13.73;;;11.30;;
16314;SDS011;8266;52.150;4.768;2023-03-01T09:36:48;12.95;;;11.75;;
16314;SDS011;8266;52.150;4.768;2023-03-01T09:39:15;12.40;;;11.20;;
16314;SDS011;8266;52.150;4.768;2023-03-01T09:41:45;12.45;;;11.25;;
16314;SDS011;8266;52.150;4.768;2023-03-01T09:44:24;13.45;;;11.57;;
16314;SDS011;8266;52.150;4.768;2023-03-01T09:46:57;11.77;;;10.57;;
16314;SDS011;8266;52.150;4.768;2023-03-01T09:49:27;11.23;;;10.13;;
16314;SDS011;8266;52.150;4.768;2023-03-01T09:51:58;11.50;;;10.45;;
16314;SDS011;8266;52.150;4.768;2023-03-01T09:54:29;11.23;;;10.15;;
16314;SDS011;8266;52.150;4.768;2023-03-01T09:57:01;11.65;;;10.35;;
16314;SDS011;8266;52.150;4.768;2023-03-01T09:59:36;12.05;;;10.90;;
16314;SDS011;8266;52.150;4.768;2023-03-01T10:02:23;10.43;;;9.43;;
16314;SDS011;8266;52.150;4.768;2023-03-01T10:04:59;9.63;;;8.70;;
16314;SDS011;8266;52.150;4.768;2023-03-01T10:07:40;9.35;;;8.38;;
16314;SDS011;8266;52.150;4.768;2023-03-01T10:10:16;8.38;;;7.68;;
16314;SDS011;8266;52.150;4.768;2023-03-01T10:12:51;7.85;;;7.15;;
16314;SDS011;8266;52.150;4.768;2023-03-01T10:15:22;7.93;;;7.13;;
16314;SDS011;8266;52.150;4.768;2023-03-01T10:17:57;7.35;;;6.60;;
16314;SDS011;8266;52.150;4.768;2023-03-01T10:20:33;8.85;;;8.02;;
16314;SDS011;8266;52.150;4.768;2023-03-01T10:23:10;8.60;;;7.82;;
16314;SDS011;8266;52.150;4.768;2023-03-01T10:25:44;9.20;;;8.30;;
16314;SDS011;8266;52.150;4.768;2023-03-01T10:28:29;9.85;;;8.88;;
16314;SDS011;8266;52.150;4.768;2023-03-01T10:31:02;9.10;;;8.15;;
16314;SDS011;8266;52.150;4.768;2023-03-01T10:33:31;8.60;;;7.80;;
16314;SDS011;8266;52.150;4.768;2023-03-01T10:36:02;8.45;;;7.65;;
16314;SDS011;8266;52.150;4.768;2023-03-01T10:38:31;10.32;;;9.30;;
16314;SDS011;8266;52.150;4.768;2023-03-01T10:41:12;9.43;;;8.52;;
16314;SDS011;8266;52.150;4.768;2023-03-01T10:43:43;10.07;;;9.07;;
16314;SDS011;8266;52.150;4.768;2023-03-01T10:46:21;10.73;;;9.63;;
16314;SDS011;8266;52.150;4.768;2023-03-01T10:49:00;10.65;;;9.65;;
16314;SDS011;8266;52.150;4.768;2023-03-01T10:51:34;10.88;;;9.77;;
16314;SDS011;8266;52.150;4.768;2023-03-01T10:54:02;10.90;;;9.82;;
16314;SDS011;8266;52.150;4.768;2023-03-01T10:56:33;10.63;;;9.60;;
16314;SDS011;8266;52.150;4.768;2023-03-01T10:59:19;10.57;;;9.48;;
16314;SDS011;8266;52.150;4.768;2023-03-01T11:02:01;10.93;;;9.82;;
16314;SDS011;8266;52.150;4.768;2023-03-01T11:04:55;11.43;;;10.32;;
16314;SDS011;8266;52.150;4.768;2023-03-01T11:07:29;10.65;;;9.57;;
16314;SDS011;8266;52.150;4.768;2023-03-01T11:09:56;12.93;;;11.68;;
16314;SDS011;8266;52.150;4.768;2023-03-01T11:12:23;13.45;;;11.23;;
16314;SDS011;8266;52.150;4.768;2023-03-01T11:14:54;11.82;;;10.70;;
16314;SDS011;8266;52.150;4.768;2023-03-01T11:17:23;11.68;;;10.43;;
16314;SDS011;8266;52.150;4.768;2023-03-01T11:20:00;14.02;;;12.52;;
16314;SDS011;8266;52.150;4.768;2023-03-01T11:22:32;14.32;;;12.52;;
16314;SDS011;8266;52.150;4.768;2023-03-01T11:25:02;12.13;;;10.80;;
16314;SDS011;8266;52.150;4.768;2023-03-01T11:27:31;11.23;;;10.05;;
16314;SDS011;8266;52.150;4.768;2023-03-01T11:30:00;11.63;;;10.52;;
16314;SDS011;8266;52.150;4.768;2023-03-01T11:32:33;12.73;;;10.77;;
16314;SDS011;8266;52.150;4.768;2023-03-01T11:35:08;9.95;;;8.98;;
16314;SDS011;8266;52.150;4.768;2023-03-01T11:37:41;10.82;;;9.70;;
16314;SDS011;8266;52.150;4.768;2023-03-01T11:40:19;11.02;;;8.63;;
16314;SDS011;8266;52.150;4.768;2023-03-01T11:42:55;10.98;;;9.90;;
16314;SDS011;8266;52.150;4.768;2023-03-01T11:45:34;12.02;;;10.70;;
16314;SDS011;8266;52.150;4.768;2023-03-01T11:48:39;10.32;;;9.32;;
16314;SDS011;8266;52.150;4.768;2023-03-01T11:51:15;12.40;;;9.77;;
16314;SDS011;8266;52.150;4.768;2023-03-01T11:53:53;9.55;;;8.55;;
16314;SDS011;8266;52.150;4.768;2023-03-01T11:56:36;9.63;;;8.10;;
16314;SDS011;8266;52.150;4.768;2023-03-01T11:59:19;11.27;;;7.30;;
16314;SDS011;8266;52.150;4.768;2023-03-01T12:02:16;10.05;;;8.23;;
16314;SDS011;8266;52.150;4.768;2023-03-01T12:05:15;11.15;;;7.93;;
16314;SDS011;8266;52.150;4.768;2023-03-01T12:07:53;8.75;;;7.95;;
16314;SDS011;8266;52.150;4.768;2023-03-01T12:10:30;9.18;;;8.02;;
16314;SDS011;8266;52.150;4.768;2023-03-01T12:13:10;9.27;;;8.38;;
16314;SDS011;8266;52.150;4.768;2023-03-01T12:15:57;10.77;;;8.30;;
16314;SDS011;8266;52.150;4.768;2023-03-01T12:18:39;8.88;;;7.47;;
16314;SDS011;8266;52.150;4.768;2023-03-01T12:21:21;7.65;;;6.80;;
16314;SDS011;8266;52.150;4.768;2023-03-01T12:24:06;8.00;;;7.20;;
16314;SDS011;8266;52.150;4.768;2023-03-01T12:26:48;8.45;;;7.32;;
16314;SDS011;8266;52.150;4.768;2023-03-01T12:29:25;7.82;;;7.03;;
16314;SDS011;8266;52.150;4.768;2023-03-01T12:32:00;7.57;;;6.53;;
16314;SDS011;8266;52.150;4.768;2023-03-01T12:34:51;6.90;;;6.20;;
16314;SDS011;8266;52.150;4.768;2023-03-01T12:37:42;7.22;;;6.53;;
16314;SDS011;8266;52.150;4.768;2023-03-01T12:43:19;6.68;;;6.07;;
16314;SDS011;8266;52.150;4.768;2023-03-01T12:46:06;5.82;;;5.32;;
16314;SDS011;8266;52.150;4.768;2023-03-01T12:48:50;7.00;;;6.30;;
16314;SDS011;8266;52.150;4.768;2023-03-01T12:51:26;7.18;;;6.47;;
16314;SDS011;8266;52.150;4.768;2023-03-01T12:53:57;8.15;;;6.55;;
16314;SDS011;8266;52.150;4.768;2023-03-01T12:56:28;7.18;;;5.85;;
16314;SDS011;8266;52.150;4.768;2023-03-01T12:59:01;6.70;;;5.80;;
16314;SDS011;8266;52.150;4.768;2023-03-01T13:01:39;6.10;;;5.50;;
16314;SDS011;8266;52.150;4.768;2023-03-01T13:04:31;6.07;;;5.47;;
16314;SDS011;8266;52.150;4.768;2023-03-01T13:07:19;6.72;;;6.13;;
16314;SDS011;8266;52.150;4.768;2023-03-01T13:09:55;7.57;;;6.50;;
16314;SDS011;8266;52.150;4.768;2023-03-01T13:12:45;6.93;;;6.22;;
16314;SDS011;8266;52.150;4.768;2023-03-01T13:15:30;9.00;;;6.00;;
16314;SDS011;8266;52.150;4.768;2023-03-01T13:18:01;7.70;;;6.38;;
16314;SDS011;8266;52.150;4.768;2023-03-01T13:20:31;6.65;;;5.45;;
16314;SDS011;8266;52.150;4.768;2023-03-01T13:23:02;7.72;;;6.72;;
16314;SDS011;8266;52.150;4.768;2023-03-01T13:25:32;7.75;;;5.82;;
16314;SDS011;8266;52.150;4.768;2023-03-01T13:31:07;7.38;;;6.15;;
16314;SDS011;8266;52.150;4.768;2023-03-01T13:33:45;6.43;;;5.80;;
16314;SDS011;8266;52.150;4.768;2023-03-01T13:39:27;7.90;;;6.10;;
16314;SDS011;8266;52.150;4.768;2023-03-01T13:41:58;7.43;;;6.05;;
16314;SDS011;8266;52.150;4.768;2023-03-01T13:44:26;6.88;;;6.18;;
16314;SDS011;8266;52.150;4.768;2023-03-01T13:46:59;8.32;;;6.32;;
16314;SDS011;8266;52.150;4.768;2023-03-01T13:49:36;6.15;;;5.55;;
16314;SDS011;8266;52.150;4.768;2023-03-01T13:52:21;6.40;;;5.80;;
16314;SDS011;8266;52.150;4.768;2023-03-01T13:55:15;7.13;;;6.07;;
16314;SDS011;8266;52.150;4.768;2023-03-01T13:57:46;5.88;;;5.28;;
16314;SDS011;8266;52.150;4.768;2023-03-01T14:00:26;6.45;;;5.85;;
16314;SDS011;8266;52.150;4.768;2023-03-01T14:03:09;7.60;;;5.93;;
16314;SDS011;8266;52.150;4.768;2023-03-01T14:05:39;6.53;;;4.85;;
16314;SDS011;8266;52.150;4.768;2023-03-01T14:08:18;6.20;;;5.60;;
16314;SDS011;8266;52.150;4.768;2023-03-01T14:11:00;5.78;;;5.28;;
16314;SDS011;8266;52.150;4.768;2023-03-01T14:13:48;5.53;;;4.97;;
16314;SDS011;8266;52.150;4.768;2023-03-01T14:16:28;5.20;;;4.70;;
16314;SDS011;8266;52.150;4.768;2023-03-01T14:19:06;4.93;;;4.45;;
16314;SDS011;8266;52.150;4.768;2023-03-01T14:21:44;4.82;;;4.32;;
16314;SDS011;8266;52.150;4.768;2023-03-01T14:24:16;5.63;;;4.03;;
16314;SDS011;8266;52.150;4.768;2023-03-01T14:26:44;5.20;;;4.70;;
16314;SDS011;8266;52.150;4.768;2023-03-01T14:29:25;5.13;;;4.60;;
16314;SDS011;8266;52.150;4.768;2023-03-01T14:31:54;5.40;;;4.90;;
16314;SDS011;8266;52.150;4.768;2023-03-01T14:34:23;5.10;;;4.43;;
16314;SDS011;8266;52.150;4.768;2023-03-01T14:36:51;6.10;;;4.80;;
16314;SDS011;8266;52.150;4.768;2023-03-01T14:39:19;5.50;;;5.00;;
16314;SDS011;8266;52.150;4.768;2023-03-01T14:41:50;5.57;;;4.38;;
16314;SDS011;8266;52.150;4.768;2023-03-01T14:44:19;6.90;;;4.50;;
16314;SDS011;8266;52.150;4.768;2023-03-01T14:46:51;6.13;;;4.32;;
16314;SDS011;8266;52.150;4.768;2023-03-01T14:49:21;4.72;;;4.28;;
16314;SDS011;8266;52.150;4.768;2023-03-01T14:51:53;5.38;;;4.68;;
16314;SDS011;8266;52.150;4.768;2023-03-01T14:54:26;4.82;;;4.20;;
16314;SDS011;8266;52.150;4.768;2023-03-01T14:56:58;6.13;;;4.55;;
16314;SDS011;8266;52.150;4.768;2023-03-01T14:59:26;5.07;;;4.57;;
16314;SDS011;8266;52.150;4.768;2023-03-01T15:01:54;7.38;;;5.00;;
16314;SDS011;8266;52.150;4.768;2023-03-01T15:04:24;4.63;;;4.20;;
16314;SDS011;8266;52.150;4.768;2023-03-01T15:06:53;4.90;;;4.40;;
16314;SDS011;8266;52.150;4.768;2023-03-01T15:09:27;7.50;;;4.88;;
16314;SDS011;8266;52.150;4.768;2023-03-01T15:11:54;5.15;;;4.65;;
16314;SDS011;8266;52.150;4.768;2023-03-01T15:14:25;6.10;;;4.25;;